sensor_id;sensor_type;location;lat;lon;timestamp;pressure;altitude;pressure_sealevel;temperature
13410;BMP180;6775;49.574;11.170;2023-07-29T00:00:53;97153.44;;;18.51
13410;BMP180;6775;49.574;11.170;2023-07-29T00:03:23;97163.66;;;18.53
13410;BMP180;6775;49.574;11.170;2023-07-29T00:05:52;97162.03;;;18.52
13410;BMP180;6775;49.574;11.170;2023-07-29T00:08:20;97158.44;;;18.53
13410;BMP180;6775;49.574;11.170;2023-07-29T00:10:49;97155.84;;;18.53
13410;BMP180;6775;49.574;11.170;2023-07-29T00:13:17;97156.66;;;18.53
13410;BMP180;6775;49.574;11.170;2023-07-29T00:15:48;97146.06;;;18.55
13410;BMP180;6775;49.574;11.170;2023-07-29T00:18:16;97148.03;;;18.53
13410;BMP180;6775;49.574;11.170;2023-07-29T00:20:44;97144.78;;;18.51
13410;BMP180;6775;49.574;11.170;2023-07-29T00:23:13;97141.41;;;18.50
13410;BMP180;6775;49.574;11.170;2023-07-29T00:25:41;97141.56;;;18.49
13410;BMP180;6775;49.574;11.170;2023-07-29T00:28:11;97134.13;;;18.46
13410;BMP180;6775;49.574;11.170;2023-07-29T00:30:39;97127.28;;;18.45
13410;BMP180;6775;49.574;11.170;2023-07-29T00:33:08;97131.88;;;18.43
13410;BMP180;6775;49.574;11.170;2023-07-29T00:35:36;97130.25;;;18.42
13410;BMP180;6775;49.574;11.170;2023-07-29T00:38:04;97127.03;;;18.40
13410;BMP180;6775;49.574;11.170;2023-07-29T00:40:35;97134.19;;;18.38
13410;BMP180;6775;49.574;11.170;2023-07-29T00:43:04;97124.78;;;18.37
13410;BMP180;6775;49.574;11.170;2023-07-29T00:45:32;97125.78;;;18.36
13410;BMP180;6775;49.574;11.170;2023-07-29T00:48:02;97128.72;;;18.33
13410;BMP180;6775;49.574;11.170;2023-07-29T00:50:32;97123.53;;;18.33
13410;BMP180;6775;49.574;11.170;2023-07-29T00:53:01;97122.91;;;18.31
13410;BMP180;6775;49.574;11.170;2023-07-29T00:55:33;97125.50;;;18.31
13410;BMP180;6775;49.574;11.170;2023-07-29T00:58:01;97133.31;;;18.31
13410;BMP180;6775;49.574;11.170;2023-07-29T01:00:30;97134.13;;;18.31
13410;BMP180;6775;49.574;11.170;2023-07-29T01:02:58;97145.69;;;18.29
13410;BMP180;6775;49.574;11.170;2023-07-29T01:05:33;97145.69;;;18.29
13410;BMP180;6775;49.574;11.170;2023-07-29T01:08:16;97137.25;;;18.27
13410;BMP180;6775;49.574;11.170;2023-07-29T01:11:05;97141.81;;;18.25
13410;BMP180;6775;49.574;11.170;2023-07-29T01:13:54;97141.19;;;18.23
13410;BMP180;6775;49.574;11.170;2023-07-29T01:16:33;97138.75;;;18.21
13410;BMP180;6775;49.574;11.170;2023-07-29T01:19:06;97141.53;;;18.20
13410;BMP180;6775;49.574;11.170;2023-07-29T01:21:36;97129.50;;;18.19
13410;BMP180;6775;49.574;11.170;2023-07-29T01:24:06;97141.91;;;18.17
13410;BMP180;6775;49.574;11.170;2023-07-29T01:26:34;97148.25;;;18.15
13410;BMP180;6775;49.574;11.170;2023-07-29T01:29:02;97137.19;;;18.13
13410;BMP180;6775;49.574;11.170;2023-07-29T01:31:38;97143.19;;;18.13
13410;BMP180;6775;49.574;11.170;2023-07-29T01:34:22;97136.88;;;18.16
13410;BMP180;6775;49.574;11.170;2023-07-29T01:36:54;97137.84;;;18.15
13410;BMP180;6775;49.574;11.170;2023-07-29T01:39:35;97144.69;;;18.16
13410;BMP180;6775;49.574;11.170;2023-07-29T01:42:07;97139.47;;;18.16
13410;BMP180;6775;49.574;11.170;2023-07-29T01:44:36;97140.28;;;18.16
13410;BMP180;6775;49.574;11.170;2023-07-29T01:47:04;97143.84;;;18.15
13410;BMP180;6775;49.574;11.170;2023-07-29T01:49:32;97144.16;;;18.12
13410;BMP180;6775;49.574;11.170;2023-07-29T01:52:01;97136.53;;;18.11
13410;BMP180;6775;49.574;11.170;2023-07-29T01:54:30;97132.06;;;18.05
13410;BMP180;6775;49.574;11.170;2023-07-29T01:56:58;97141.00;;;18.02
13410;BMP180;6775;49.574;11.170;2023-07-29T01:59:26;97143.16;;;17.99
13410;BMP180;6775;49.574;11.170;2023-07-29T02:01:54;97129.91;;;17.94
13410;BMP180;6775;49.574;11.170;2023-07-29T02:04:22;97136.25;;;17.91
13410;BMP180;6775;49.574;11.170;2023-07-29T02:06:50;97138.53;;;17.86
13410;BMP180;6775;49.574;11.170;2023-07-29T02:09:18;97140.88;;;17.81
13410;BMP180;6775;49.574;11.170;2023-07-29T02:11:48;97143.00;;;17.78
13410;BMP180;6775;49.574;11.170;2023-07-29T02:14:16;97130.34;;;17.75
13410;BMP180;6775;49.574;11.170;2023-07-29T02:16:44;97137.88;;;17.70
13410;BMP180;6775;49.574;11.170;2023-07-29T02:19:12;97132.19;;;17.67
13410;BMP180;6775;49.574;11.170;2023-07-29T02:21:40;97118.31;;;17.60
13410;BMP180;6775;49.574;11.170;2023-07-29T02:24:08;97124.34;;;17.52
13410;BMP180;6775;49.574;11.170;2023-07-29T02:26:36;97129.44;;;17.46
13410;BMP180;6775;49.574;11.170;2023-07-29T02:29:06;97129.13;;;17.41
13410;BMP180;6775;49.574;11.170;2023-07-29T02:31:34;97128.50;;;17.39
13410;BMP180;6775;49.574;11.170;2023-07-29T02:34:04;97118.47;;;17.36
13410;BMP180;6775;49.574;11.170;2023-07-29T02:36:32;97116.38;;;17.31
13410;BMP180;6775;49.574;11.170;2023-07-29T02:39:01;97117.09;;;17.25
13410;BMP180;6775;49.574;11.170;2023-07-29T02:41:29;97110.75;;;17.20
13410;BMP180;6775;49.574;11.170;2023-07-29T02:43:57;97114.03;;;17.14
13410;BMP180;6775;49.574;11.170;2023-07-29T02:46:26;97104.97;;;17.10
13410;BMP180;6775;49.574;11.170;2023-07-29T02:48:54;97106.59;;;17.11
13410;BMP180;6775;49.574;11.170;2023-07-29T02:51:22;97106.28;;;17.06
13410;BMP180;6775;49.574;11.170;2023-07-29T02:53:50;97095.09;;;17.06
13410;BMP180;6775;49.574;11.170;2023-07-29T02:56:19;97101.06;;;17.06
13410;BMP180;6775;49.574;11.170;2023-07-29T02:58:47;97090.69;;;17.06
13410;BMP180;6775;49.574;11.170;2023-07-29T03:01:15;97087.94;;;17.08
13410;BMP180;6775;49.574;11.170;2023-07-29T03:03:44;97078.38;;;17.08
13410;BMP180;6775;49.574;11.170;2023-07-29T03:06:14;97073.19;;;17.08
13410;BMP180;6775;49.574;11.170;2023-07-29T03:08:42;97069.47;;;17.03
13410;BMP180;6775;49.574;11.170;2023-07-29T03:11:14;97072.59;;;16.98
13410;BMP180;6775;49.574;11.170;2023-07-29T03:13:43;97064.97;;;16.97
13410;BMP180;6775;49.574;11.170;2023-07-29T03:16:13;97070.97;;;16.97
13410;BMP180;6775;49.574;11.170;2023-07-29T03:18:43;97056.88;;;16.92
13410;BMP180;6775;49.574;11.170;2023-07-29T03:21:11;97053.16;;;16.86
13410;BMP180;6775;49.574;11.170;2023-07-29T03:23:40;97063.44;;;16.80
13410;BMP180;6775;49.574;11.170;2023-07-29T03:26:08;97081.78;;;16.78
13410;BMP180;6775;49.574;11.170;2023-07-29T03:28:40;97114.50;;;16.79
13410;BMP180;6775;49.574;11.170;2023-07-29T03:31:09;97114.34;;;16.81
13410;BMP180;6775;49.574;11.170;2023-07-29T03:33:38;97113.03;;;16.85
13410;BMP180;6775;49.574;11.170;2023-07-29T03:36:07;97122.63;;;16.84
13410;BMP180;6775;49.574;11.170;2023-07-29T03:38:36;97105.06;;;16.86
13410;BMP180;6775;49.574;11.170;2023-07-29T03:41:07;97111.56;;;16.90
13410;BMP180;6775;49.574;11.170;2023-07-29T03:43:36;97105.06;;;16.94
13410;BMP180;6775;49.574;11.170;2023-07-29T03:46:04;97102.28;;;16.96
13410;BMP180;6775;49.574;11.170;2023-07-29T03:48:37;97100.47;;;16.96
13410;BMP180;6775;49.574;11.170;2023-07-29T03:51:07;97103.25;;;16.95
13410;BMP180;6775;49.574;11.170;2023-07-29T03:53:35;97094.34;;;16.89
13410;BMP180;6775;49.574;11.170;2023-07-29T03:56:03;97086.78;;;16.80
13410;BMP180;6775;49.574;11.170;2023-07-29T03:58:32;97094.78;;;16.70
13410;BMP180;6775;49.574;11.170;2023-07-29T04:01:00;97087.66;;;16.65
13410;BMP180;6775;49.574;11.170;2023-07-29T04:03:28;97084.28;;;16.64
13410;BMP180;6775;49.574;11.170;2023-07-29T04:05:56;97074.69;;;16.65
13410;BMP180;6775;49.574;11.170;2023-07-29T04:08:25;97069.50;;;16.65
13410;BMP180;6775;49.574;11.170;2023-07-29T04:10:53;97072.72;;;16.66
13410;BMP180;6775;49.574;11.170;2023-07-29T04:13:22;97073.66;;;16.73
13410;BMP180;6775;49.574;11.170;2023-07-29T04:15:50;97072.69;;;16.82
13410;BMP180;6775;49.574;11.170;2023-07-29T04:18:18;97070.34;;;16.95
13410;BMP180;6775;49.574;11.170;2023-07-29T04:20:46;97067.34;;;17.06
13410;BMP180;6775;49.574;11.170;2023-07-29T04:23:13;97058.16;;;17.18
13410;BMP180;6775;49.574;11.170;2023-07-29T04:25:43;97059.59;;;17.28
13410;BMP180;6775;49.574;11.170;2023-07-29T04:28:11;97070.38;;;17.40
13410;BMP180;6775;49.574;11.170;2023-07-29T04:30:39;97072.91;;;17.48
13410;BMP180;6775;49.574;11.170;2023-07-29T04:33:07;97076.09;;;17.58
13410;BMP180;6775;49.574;11.170;2023-07-29T04:35:35;97076.84;;;17.66
13410;BMP180;6775;49.574;11.170;2023-07-29T04:38:03;97074.97;;;17.74
13410;BMP180;6775;49.574;11.170;2023-07-29T04:40:33;97074.75;;;17.84
13410;BMP180;6775;49.574;11.170;2023-07-29T04:43:02;97071.06;;;17.93
13410;BMP180;6775;49.574;11.170;2023-07-29T04:45:31;97067.41;;;18.02
13410;BMP180;6775;49.574;11.170;2023-07-29T04:47:59;97073.97;;;18.12
13410;BMP180;6775;49.574;11.170;2023-07-29T04:50:27;97071.75;;;18.23
13410;BMP180;6775;49.574;11.170;2023-07-29T04:52:55;97049.72;;;18.34
13410;BMP180;6775;49.574;11.170;2023-07-29T04:55:23;97054.81;;;18.42
13410;BMP180;6775;49.574;11.170;2023-07-29T04:57:51;97053.09;;;18.49
13410;BMP180;6775;49.574;11.170;2023-07-29T05:00:21;97054.78;;;18.56
13410;BMP180;6775;49.574;11.170;2023-07-29T05:02:49;97049.69;;;18.63
13410;BMP180;6775;49.574;11.170;2023-07-29T05:05:18;97054.34;;;18.67
13410;BMP180;6775;49.574;11.170;2023-07-29T05:07:46;97056.22;;;18.73
13410;BMP180;6775;49.574;11.170;2023-07-29T05:10:14;97056.28;;;18.79
13410;BMP180;6775;49.574;11.170;2023-07-29T05:12:42;97043.91;;;18.81
13410;BMP180;6775;49.574;11.170;2023-07-29T05:15:10;97050.72;;;18.82
13410;BMP180;6775;49.574;11.170;2023-07-29T05:17:40;97041.13;;;18.83
13410;BMP180;6775;49.574;11.170;2023-07-29T05:20:09;97049.72;;;18.83
13410;BMP180;6775;49.574;11.170;2023-07-29T05:22:37;97051.34;;;18.84
13410;BMP180;6775;49.574;11.170;2023-07-29T05:25:06;97053.75;;;18.86
13410;BMP180;6775;49.574;11.170;2023-07-29T05:27:35;97044.78;;;18.88
13410;BMP180;6775;49.574;11.170;2023-07-29T05:30:04;97036.78;;;18.90
13410;BMP180;6775;49.574;11.170;2023-07-29T05:32:33;97043.59;;;18.91
13410;BMP180;6775;49.574;11.170;2023-07-29T05:35:03;97053.22;;;18.90
13410;BMP180;6775;49.574;11.170;2023-07-29T05:37:31;97048.97;;;18.89
13410;BMP180;6775;49.574;11.170;2023-07-29T05:39:59;97051.25;;;18.92
13410;BMP180;6775;49.574;11.170;2023-07-29T05:42:27;97051.69;;;18.96
13410;BMP180;6775;49.574;11.170;2023-07-29T05:44:55;97042.06;;;18.96
13410;BMP180;6775;49.574;11.170;2023-07-29T05:47:23;97046.66;;;18.94
13410;BMP180;6775;49.574;11.170;2023-07-29T05:49:51;97035.25;;;18.95
13410;BMP180;6775;49.574;11.170;2023-07-29T05:52:21;97052.22;;;18.91
13410;BMP180;6775;49.574;11.170;2023-07-29T05:54:49;97045.78;;;18.87
13410;BMP180;6775;49.574;11.170;2023-07-29T05:57:17;97042.00;;;18.90
13410;BMP180;6775;49.574;11.170;2023-07-29T05:59:44;97038.91;;;19.01
13410;BMP180;6775;49.574;11.170;2023-07-29T06:02:12;97052.66;;;19.09
13410;BMP180;6775;49.574;11.170;2023-07-29T06:04:41;97049.66;;;19.12
13410;BMP180;6775;49.574;11.170;2023-07-29T06:07:09;97054.69;;;19.14
13410;BMP180;6775;49.574;11.170;2023-07-29T06:09:39;97053.72;;;19.15
13410;BMP180;6775;49.574;11.170;2023-07-29T06:12:08;97055.94;;;19.18
13410;BMP180;6775;49.574;11.170;2023-07-29T06:14:36;97059.53;;;19.17
13410;BMP180;6775;49.574;11.170;2023-07-29T06:17:05;97058.75;;;19.16
13410;BMP180;6775;49.574;11.170;2023-07-29T06:19:34;97059.09;;;19.13
13410;BMP180;6775;49.574;11.170;2023-07-29T06:22:02;97066.50;;;19.10
13410;BMP180;6775;49.574;11.170;2023-07-29T06:24:31;97061.84;;;19.05
13410;BMP180;6775;49.574;11.170;2023-07-29T06:27:00;97054.53;;;19.01
13410;BMP180;6775;49.574;11.170;2023-07-29T06:29:28;97044.06;;;18.94
13410;BMP180;6775;49.574;11.170;2023-07-29T06:31:58;97047.38;;;18.88
13410;BMP180;6775;49.574;11.170;2023-07-29T06:34:26;97052.31;;;18.83
13410;BMP180;6775;49.574;11.170;2023-07-29T06:36:54;97047.66;;;18.79
13410;BMP180;6775;49.574;11.170;2023-07-29T06:39:22;97041.38;;;18.73
13410;BMP180;6775;49.574;11.170;2023-07-29T06:41:50;97039.16;;;18.70
13410;BMP180;6775;49.574;11.170;2023-07-29T06:44:19;97039.34;;;18.69
13410;BMP180;6775;49.574;11.170;2023-07-29T06:46:47;97035.38;;;18.73
13410;BMP180;6775;49.574;11.170;2023-07-29T06:49:15;97037.81;;;18.74
13410;BMP180;6775;49.574;11.170;2023-07-29T06:51:43;97057.09;;;18.80
13410;BMP180;6775;49.574;11.170;2023-07-29T06:54:11;97075.50;;;18.78
13410;BMP180;6775;49.574;11.170;2023-07-29T06:56:40;97094.28;;;18.74
13410;BMP180;6775;49.574;11.170;2023-07-29T06:59:08;97084.75;;;18.67
13410;BMP180;6775;49.574;11.170;2023-07-29T07:01:37;97088.81;;;18.55
13410;BMP180;6775;49.574;11.170;2023-07-29T07:04:05;97068.59;;;18.42
13410;BMP180;6775;49.574;11.170;2023-07-29T07:06:33;97058.50;;;18.33
13410;BMP180;6775;49.574;11.170;2023-07-29T07:09:02;97068.97;;;18.25
13410;BMP180;6775;49.574;11.170;2023-07-29T07:11:30;97064.31;;;18.20
13410;BMP180;6775;49.574;11.170;2023-07-29T07:13:58;97058.50;;;18.19
13410;BMP180;6775;49.574;11.170;2023-07-29T07:16:26;97071.69;;;18.17
13410;BMP180;6775;49.574;11.170;2023-07-29T07:18:58;97067.63;;;18.15
13410;BMP180;6775;49.574;11.170;2023-07-29T07:21:26;97066.16;;;18.12
13410;BMP180;6775;49.574;11.170;2023-07-29T07:23:54;97063.56;;;18.12
13410;BMP180;6775;49.574;11.170;2023-07-29T07:26:21;97069.44;;;18.14
13410;BMP180;6775;49.574;11.170;2023-07-29T07:28:50;97065.81;;;18.15
13410;BMP180;6775;49.574;11.170;2023-07-29T07:31:18;97060.28;;;18.18
13410;BMP180;6775;49.574;11.170;2023-07-29T07:33:46;97053.53;;;18.23
13410;BMP180;6775;49.574;11.170;2023-07-29T07:36:16;97054.00;;;18.27
13410;BMP180;6775;49.574;11.170;2023-07-29T07:38:44;97068.09;;;18.32
13410;BMP180;6775;49.574;11.170;2023-07-29T07:41:12;97062.78;;;18.40
13410;BMP180;6775;49.574;11.170;2023-07-29T07:43:41;97053.72;;;18.51
13410;BMP180;6775;49.574;11.170;2023-07-29T07:46:09;97048.16;;;18.68
13410;BMP180;6775;49.574;11.170;2023-07-29T07:48:39;97053.94;;;18.84
13410;BMP180;6775;49.574;11.170;2023-07-29T07:51:10;97050.88;;;18.95
13410;BMP180;6775;49.574;11.170;2023-07-29T07:53:40;97048.81;;;19.05
13410;BMP180;6775;49.574;11.170;2023-07-29T07:56:08;97047.06;;;19.12
13410;BMP180;6775;49.574;11.170;2023-07-29T07:58:37;97050.72;;;19.18
13410;BMP180;6775;49.574;11.170;2023-07-29T08:01:07;97037.28;;;19.14
13410;BMP180;6775;49.574;11.170;2023-07-29T08:03:36;97034.88;;;19.13
13410;BMP180;6775;49.574;11.170;2023-07-29T08:06:05;97037.47;;;19.13
13410;BMP180;6775;49.574;11.170;2023-07-29T08:08:36;97023.00;;;19.10
13410;BMP180;6775;49.574;11.170;2023-07-29T08:11:06;97015.13;;;19.04
13410;BMP180;6775;49.574;11.170;2023-07-29T08:13:34;97028.66;;;18.99
13410;BMP180;6775;49.574;11.170;2023-07-29T08:16:02;97030.47;;;18.99
13410;BMP180;6775;49.574;11.170;2023-07-29T08:18:30;97029.03;;;18.96
13410;BMP180;6775;49.574;11.170;2023-07-29T08:21:00;97035.06;;;18.97
13410;BMP180;6775;49.574;11.170;2023-07-29T08:23:30;97038.84;;;18.94
13410;BMP180;6775;49.574;11.170;2023-07-29T08:26:01;97046.03;;;18.92
13410;BMP180;6775;49.574;11.170;2023-07-29T08:28:34;97047.63;;;18.93
13410;BMP180;6775;49.574;11.170;2023-07-29T08:31:04;97039.63;;;18.95
13410;BMP180;6775;49.574;11.170;2023-07-29T08:33:33;97028.06;;;18.97
13410;BMP180;6775;49.574;11.170;2023-07-29T08:36:02;97024.47;;;18.98
13410;BMP180;6775;49.574;11.170;2023-07-29T08:38:30;97029.69;;;18.98
13410;BMP180;6775;49.574;11.170;2023-07-29T08:41:09;97034.88;;;18.98
13410;BMP180;6775;49.574;11.170;2023-07-29T08:43:52;97029.69;;;18.98
13410;BMP180;6775;49.574;11.170;2023-07-29T08:46:23;97013.41;;;18.96
13410;BMP180;6775;49.574;11.170;2023-07-29T08:48:52;97036.84;;;18.96
13410;BMP180;6775;49.574;11.170;2023-07-29T08:51:23;97051.50;;;18.97
13410;BMP180;6775;49.574;11.170;2023-07-29T08:53:51;97074.56;;;19.00
13410;BMP180;6775;49.574;11.170;2023-07-29T08:56:20;97069.00;;;19.03
13410;BMP180;6775;49.574;11.170;2023-07-29T08:58:50;97062.28;;;19.09
13410;BMP180;6775;49.574;11.170;2023-07-29T09:01:18;97082.56;;;19.13
13410;BMP180;6775;49.574;11.170;2023-07-29T09:03:46;97088.03;;;19.18
13410;BMP180;6775;49.574;11.170;2023-07-29T09:06:14;97075.63;;;19.20
13410;BMP180;6775;49.574;11.170;2023-07-29T09:08:44;97064.44;;;19.26
13410;BMP180;6775;49.574;11.170;2023-07-29T09:11:14;97060.31;;;19.31
13410;BMP180;6775;49.574;11.170;2023-07-29T09:13:43;97062.34;;;19.36
13410;BMP180;6775;49.574;11.170;2023-07-29T09:16:13;97056.94;;;19.37
13410;BMP180;6775;49.574;11.170;2023-07-29T09:18:42;97063.59;;;19.40
13410;BMP180;6775;49.574;11.170;2023-07-29T09:21:10;97061.97;;;19.39
13410;BMP180;6775;49.574;11.170;2023-07-29T09:23:42;97072.03;;;19.42
13410;BMP180;6775;49.574;11.170;2023-07-29T09:26:11;97072.47;;;19.45
13410;BMP180;6775;49.574;11.170;2023-07-29T09:28:40;97080.47;;;19.44
13410;BMP180;6775;49.574;11.170;2023-07-29T09:31:21;97096.66;;;19.39
13410;BMP180;6775;49.574;11.170;2023-07-29T09:33:50;97102.19;;;19.30
13410;BMP180;6775;49.574;11.170;2023-07-29T09:36:23;97105.34;;;19.25
13410;BMP180;6775;49.574;11.170;2023-07-29T09:38:53;97096.28;;;19.22
13410;BMP180;6775;49.574;11.170;2023-07-29T09:41:23;97098.44;;;19.18
13410;BMP180;6775;49.574;11.170;2023-07-29T09:43:56;97078.31;;;19.12
13410;BMP180;6775;49.574;11.170;2023-07-29T09:46:34;97082.50;;;19.07
13410;BMP180;6775;49.574;11.170;2023-07-29T09:49:05;97075.47;;;19.07
13410;BMP180;6775;49.574;11.170;2023-07-29T09:51:37;97079.34;;;19.11
13410;BMP180;6775;49.574;11.170;2023-07-29T09:54:07;97083.16;;;19.15
13410;BMP180;6775;49.574;11.170;2023-07-29T09:56:41;97078.09;;;19.28
13410;BMP180;6775;49.574;11.170;2023-07-29T09:59:10;97067.06;;;19.47
13410;BMP180;6775;49.574;11.170;2023-07-29T10:01:40;97071.66;;;19.66
13410;BMP180;6775;49.574;11.170;2023-07-29T10:04:10;97067.16;;;19.80
13410;BMP180;6775;49.574;11.170;2023-07-29T10:06:41;97077.22;;;20.04
13410;BMP180;6775;49.574;11.170;2023-07-29T10:09:11;97070.88;;;20.47
13410;BMP180;6775;49.574;11.170;2023-07-29T10:11:41;97067.31;;;20.94
13410;BMP180;6775;49.574;11.170;2023-07-29T10:14:10;97069.50;;;21.57
13410;BMP180;6775;49.574;11.170;2023-07-29T10:16:42;97071.91;;;22.03
13410;BMP180;6775;49.574;11.170;2023-07-29T10:19:13;97063.03;;;22.43
13410;BMP180;6775;49.574;11.170;2023-07-29T10:21:46;97056.97;;;22.49
13410;BMP180;6775;49.574;11.170;2023-07-29T10:24:19;97064.75;;;22.75
13410;BMP180;6775;49.574;11.170;2023-07-29T10:26:59;97074.16;;;23.01
13410;BMP180;6775;49.574;11.170;2023-07-29T10:29:31;97051.97;;;23.04
13410;BMP180;6775;49.574;11.170;2023-07-29T10:32:04;97051.91;;;23.10
13410;BMP180;6775;49.574;11.170;2023-07-29T10:34:34;97051.69;;;23.18
13410;BMP180;6775;49.574;11.170;2023-07-29T10:37:03;97046.19;;;23.26
13410;BMP180;6775;49.574;11.170;2023-07-29T10:39:38;97048.41;;;23.60
13410;BMP180;6775;49.574;11.170;2023-07-29T10:42:07;97036.66;;;23.69
13410;BMP180;6775;49.574;11.170;2023-07-29T10:44:51;97044.00;;;23.54
13410;BMP180;6775;49.574;11.170;2023-07-29T10:47:23;97048.38;;;23.29
13410;BMP180;6775;49.574;11.170;2023-07-29T10:49:54;97047.03;;;23.20
13410;BMP180;6775;49.574;11.170;2023-07-29T10:52:37;97053.75;;;23.40
13410;BMP180;6775;49.574;11.170;2023-07-29T10:55:24;97042.97;;;23.24
13410;BMP180;6775;49.574;11.170;2023-07-29T10:58:04;97042.69;;;23.01
13410;BMP180;6775;49.574;11.170;2023-07-29T11:00:32;97039.53;;;22.80
13410;BMP180;6775;49.574;11.170;2023-07-29T11:03:04;97039.91;;;22.83
13410;BMP180;6775;49.574;11.170;2023-07-29T11:05:48;97028.97;;;23.06
13410;BMP180;6775;49.574;11.170;2023-07-29T11:08:18;97038.09;;;23.34
13410;BMP180;6775;49.574;11.170;2023-07-29T11:11:07;97033.59;;;23.41
13410;BMP180;6775;49.574;11.170;2023-07-29T11:13:37;97034.34;;;23.48
13410;BMP180;6775;49.574;11.170;2023-07-29T11:16:06;97035.06;;;23.61
13410;BMP180;6775;49.574;11.170;2023-07-29T11:18:36;97025.97;;;23.64
13410;BMP180;6775;49.574;11.170;2023-07-29T11:21:04;97023.22;;;23.83
13410;BMP180;6775;49.574;11.170;2023-07-29T11:23:34;97016.31;;;23.88
13410;BMP180;6775;49.574;11.170;2023-07-29T11:26:04;97022.97;;;24.09
13410;BMP180;6775;49.574;11.170;2023-07-29T11:28:38;97022.06;;;24.21
13410;BMP180;6775;49.574;11.170;2023-07-29T11:31:07;97022.06;;;24.21
13410;BMP180;6775;49.574;11.170;2023-07-29T11:33:39;97016.38;;;24.24
13410;BMP180;6775;49.574;11.170;2023-07-29T11:36:17;97028.53;;;24.19
13410;BMP180;6775;49.574;11.170;2023-07-29T11:38:46;97021.47;;;23.71
13410;BMP180;6775;49.574;11.170;2023-07-29T11:41:20;97028.78;;;23.38
13410;BMP180;6775;49.574;11.170;2023-07-29T11:43:49;97028.31;;;23.17
13410;BMP180;6775;49.574;11.170;2023-07-29T11:46:22;97025.78;;;22.91
13410;BMP180;6775;49.574;11.170;2023-07-29T11:48:54;97019.38;;;22.80
13410;BMP180;6775;49.574;11.170;2023-07-29T11:51:22;97032.72;;;22.73
13410;BMP180;6775;49.574;11.170;2023-07-29T11:53:51;97036.59;;;22.64
13410;BMP180;6775;49.574;11.170;2023-07-29T11:56:19;97029.13;;;22.61
13410;BMP180;6775;49.574;11.170;2023-07-29T11:58:49;97021.31;;;22.54
13410;BMP180;6775;49.574;11.170;2023-07-29T12:01:17;97015.84;;;22.56
13410;BMP180;6775;49.574;11.170;2023-07-29T12:03:45;97018.53;;;22.86
13410;BMP180;6775;49.574;11.170;2023-07-29T12:06:16;97018.44;;;23.43
13410;BMP180;6775;49.574;11.170;2023-07-29T12:08:44;97013.25;;;23.91
13410;BMP180;6775;49.574;11.170;2023-07-29T12:11:12;96995.69;;;24.34
13410;BMP180;6775;49.574;11.170;2023-07-29T12:13:42;96991.66;;;24.67
13410;BMP180;6775;49.574;11.170;2023-07-29T12:16:16;96986.94;;;24.87
13410;BMP180;6775;49.574;11.170;2023-07-29T12:18:44;96999.53;;;24.96
13410;BMP180;6775;49.574;11.170;2023-07-29T12:21:15;97000.00;;;25.11
13410;BMP180;6775;49.574;11.170;2023-07-29T12:23:43;97002.25;;;25.37
13410;BMP180;6775;49.574;11.170;2023-07-29T12:26:11;96988.88;;;25.50
13410;BMP180;6775;49.574;11.170;2023-07-29T12:28:45;96995.06;;;25.44
13410;BMP180;6775;49.574;11.170;2023-07-29T12:31:13;96996.84;;;25.32
13410;BMP180;6775;49.574;11.170;2023-07-29T12:33:42;96991.38;;;25.45
13410;BMP180;6775;49.574;11.170;2023-07-29T12:36:10;96985.03;;;25.64
13410;BMP180;6775;49.574;11.170;2023-07-29T12:38:42;96978.53;;;25.78
13410;BMP180;6775;49.574;11.170;2023-07-29T12:41:10;96971.00;;;25.81
13410;BMP180;6775;49.574;11.170;2023-07-29T12:43:39;96978.22;;;25.86
13410;BMP180;6775;49.574;11.170;2023-07-29T12:46:07;96981.16;;;25.78
13410;BMP180;6775;49.574;11.170;2023-07-29T12:48:35;96964.63;;;25.59
13410;BMP180;6775;49.574;11.170;2023-07-29T12:51:03;96969.06;;;25.36
13410;BMP180;6775;49.574;11.170;2023-07-29T12:53:31;96963.91;;;25.18
13410;BMP180;6775;49.574;11.170;2023-07-29T12:56:00;96967.72;;;25.04
13410;BMP180;6775;49.574;11.170;2023-07-29T12:58:28;96967.16;;;25.02
13410;BMP180;6775;49.574;11.170;2023-07-29T13:00:56;96967.50;;;25.06
13410;BMP180;6775;49.574;11.170;2023-07-29T13:03:24;96966.75;;;25.17
13410;BMP180;6775;49.574;11.170;2023-07-29T13:05:54;96955.91;;;25.36
13410;BMP180;6775;49.574;11.170;2023-07-29T13:08:22;96950.00;;;25.52
13410;BMP180;6775;49.574;11.170;2023-07-29T13:10:50;96948.75;;;25.54
13410;BMP180;6775;49.574;11.170;2023-07-29T13:13:19;96945.06;;;25.44
13410;BMP180;6775;49.574;11.170;2023-07-29T13:15:48;96937.94;;;25.22
13410;BMP180;6775;49.574;11.170;2023-07-29T13:18:16;96934.13;;;25.06
13410;BMP180;6775;49.574;11.170;2023-07-29T13:20:44;96931.09;;;24.91
13410;BMP180;6775;49.574;11.170;2023-07-29T13:23:12;96937.00;;;24.87
13410;BMP180;6775;49.574;11.170;2023-07-29T13:25:40;96934.72;;;24.90
13410;BMP180;6775;49.574;11.170;2023-07-29T13:28:08;96923.72;;;24.82
13410;BMP180;6775;49.574;11.170;2023-07-29T13:30:38;96933.63;;;24.69
13410;BMP180;6775;49.574;11.170;2023-07-29T13:33:07;96924.06;;;24.56
13410;BMP180;6775;49.574;11.170;2023-07-29T13:35:35;96934.50;;;24.63
13410;BMP180;6775;49.574;11.170;2023-07-29T13:38:03;96932.00;;;24.68
13410;BMP180;6775;49.574;11.170;2023-07-29T13:40:31;96924.75;;;24.81
13410;BMP180;6775;49.574;11.170;2023-07-29T13:43:02;96926.75;;;24.97
13410;BMP180;6775;49.574;11.170;2023-07-29T13:45:30;96915.59;;;25.01
13410;BMP180;6775;49.574;11.170;2023-07-29T13:47:59;96917.22;;;25.02
13410;BMP180;6775;49.574;11.170;2023-07-29T13:50:27;96910.38;;;24.95
13410;BMP180;6775;49.574;11.170;2023-07-29T13:52:55;96927.00;;;24.95
13410;BMP180;6775;49.574;11.170;2023-07-29T13:55:24;96910.16;;;25.14
13410;BMP180;6775;49.574;11.170;2023-07-29T13:57:53;96927.91;;;25.30
13410;BMP180;6775;49.574;11.170;2023-07-29T14:00:21;96922.94;;;25.22
13410;BMP180;6775;49.574;11.170;2023-07-29T14:02:49;96937.00;;;25.16
13410;BMP180;6775;49.574;11.170;2023-07-29T14:05:19;96930.84;;;25.22
13410;BMP180;6775;49.574;11.170;2023-07-29T14:07:47;96927.34;;;25.28
13410;BMP180;6775;49.574;11.170;2023-07-29T14:10:15;96937.59;;;25.18
13410;BMP180;6775;49.574;11.170;2023-07-29T14:12:43;96931.88;;;25.21
13410;BMP180;6775;49.574;11.170;2023-07-29T14:15:11;96933.97;;;25.42
13410;BMP180;6775;49.574;11.170;2023-07-29T14:17:39;96923.91;;;25.62
13410;BMP180;6775;49.574;11.170;2023-07-29T14:20:09;96921.91;;;25.75
13410;BMP180;6775;49.574;11.170;2023-07-29T14:22:38;96914.91;;;25.81